AXM278 WMKK-WBSB
Flight info
| Callsign | AXM278 |
|---|---|
| Flight time | 2h 1m |
| Altitude | 37000 |
| Route | KIMAT3F KIMAT Y344 VPK M758 OLKIT M759 BRU |
| Aircraft | A320/M-SDE3FGHIRWY/LB1 |
Departure
| Time | 2026-05-05 07:00 |
|---|---|
| Airport | Kuala Lumpur International Airport (WMKK) |
Arrival
| Time | 2026-05-05 09:02 |
|---|---|
| Airport | Brunei International Airport (WBSB) |
| Time | Latitude | Longitude | Altitude | Speed | Heading |
|---|---|---|---|---|---|
| 2026-05-05 06:44 | 2.74066 | 101.68304 | 74 ft | 0 kts | 145° |
| 2026-05-05 06:48 | 2.74070 | 101.68301 | 74 ft | 2 kts | 146° |
| 2026-05-05 06:48 | 2.74083 | 101.68292 | 74 ft | 2 kts | 145° |
| 2026-05-05 06:48 | 2.74095 | 101.68285 | 74 ft | 1 kts | 162° |
| 2026-05-05 06:48 | 2.74107 | 101.68284 | 74 ft | 1 kts | 199° |
| 2026-05-05 06:49 | 2.74120 | 101.68291 | 74 ft | 1 kts | 227° |
| 2026-05-05 06:49 | 2.74124 | 101.68296 | 74 ft | 1 kts | 241° |
| 2026-05-05 06:49 | 2.74126 | 101.68299 | 74 ft | 0 kts | 237° |
| 2026-05-05 06:50 | 2.74125 | 101.68298 | 74 ft | 0 kts | 236° |
| 2026-05-05 06:51 | 2.74121 | 101.68293 | 74 ft | 1 kts | 236° |
| 2026-05-05 06:51 | 2.74110 | 101.68276 | 74 ft | 4 kts | 236° |
| 2026-05-05 06:51 | 2.74088 | 101.68243 | 74 ft | 7 kts | 236° |
| 2026-05-05 06:51 | 2.74055 | 101.68195 | 74 ft | 9 kts | 236° |
| 2026-05-05 06:52 | 2.74014 | 101.68135 | 74 ft | 11 kts | 236° |
| 2026-05-05 06:52 | 2.73967 | 101.68065 | 74 ft | 12 kts | 236° |
| 2026-05-05 06:52 | 2.73899 | 101.68031 | 74 ft | 12 kts | 141° |
| 2026-05-05 06:52 | 2.73829 | 101.68079 | 74 ft | 12 kts | 146° |
| 2026-05-05 06:53 | 2.73755 | 101.68129 | 74 ft | 12 kts | 146° |
| 2026-05-05 06:53 | 2.73679 | 101.68180 | 74 ft | 13 kts | 145° |
| 2026-05-05 06:53 | 2.73599 | 101.68233 | 74 ft | 14 kts | 146° |
| 2026-05-05 06:53 | 2.73514 | 101.68289 | 74 ft | 14 kts | 148° |
| 2026-05-05 06:54 | 2.73427 | 101.68349 | 74 ft | 15 kts | 146° |
| 2026-05-05 06:54 | 2.73337 | 101.68409 | 74 ft | 15 kts | 146° |
| 2026-05-05 06:54 | 2.73243 | 101.68471 | 74 ft | 15 kts | 146° |
| 2026-05-05 06:54 | 2.73152 | 101.68535 | 74 ft | 15 kts | 146° |
| 2026-05-05 06:55 | 2.73063 | 101.68594 | 74 ft | 14 kts | 146° |
| 2026-05-05 06:55 | 2.72977 | 101.68651 | 74 ft | 14 kts | 146° |
| 2026-05-05 06:55 | 2.72891 | 101.68708 | 74 ft | 14 kts | 143° |
| 2026-05-05 06:55 | 2.72811 | 101.68762 | 74 ft | 13 kts | 147° |
| 2026-05-05 06:56 | 2.72727 | 101.68817 | 74 ft | 14 kts | 146° |
| 2026-05-05 06:56 | 2.72642 | 101.68875 | 74 ft | 14 kts | 146° |
| 2026-05-05 06:56 | 2.72554 | 101.68935 | 74 ft | 15 kts | 145° |
| 2026-05-05 06:56 | 2.72460 | 101.68997 | 74 ft | 16 kts | 147° |
| 2026-05-05 06:57 | 2.72361 | 101.69064 | 74 ft | 17 kts | 146° |
| 2026-05-05 06:57 | 2.72254 | 101.69135 | 74 ft | 18 kts | 146° |
| 2026-05-05 06:57 | 2.72143 | 101.69210 | 74 ft | 19 kts | 146° |
| 2026-05-05 06:57 | 2.72028 | 101.69286 | 74 ft | 19 kts | 146° |
| 2026-05-05 06:58 | 2.71919 | 101.69360 | 74 ft | 16 kts | 146° |
| 2026-05-05 06:58 | 2.71830 | 101.69380 | 74 ft | 14 kts | 211° |
| 2026-05-05 06:58 | 2.71769 | 101.69301 | 74 ft | 14 kts | 243° |
| 2026-05-05 06:58 | 2.71778 | 101.69207 | 74 ft | 14 kts | 298° |
| 2026-05-05 06:59 | 2.71804 | 101.69121 | 74 ft | 6 kts | 262° |
| 2026-05-05 06:59 | 2.71829 | 101.69084 | 74 ft | 7 kts | 324° |
| 2026-05-05 06:59 | 2.71841 | 101.69076 | 74 ft | 1 kts | 326° |
| 2026-05-05 06:59 | 2.72018 | 101.68958 | 74 ft | 66 kts | 326° |
| 2026-05-05 07:00 | 2.72585 | 101.68574 | 75 ft | 129 kts | 326° |
| 2026-05-05 07:00 | 2.73497 | 101.67969 | 125 ft | 175 kts | 326° |
| 2026-05-05 07:00 | 2.74514 | 101.67279 | 627 ft | 179 kts | 326° |
| 2026-05-05 07:00 | 2.75578 | 101.66561 | 1007 ft | 193 kts | 322° |
| 2026-05-05 07:01 | 2.76367 | 101.65427 | 1306 ft | 212 kts | 282° |
| 2026-05-05 07:01 | 2.76423 | 101.63851 | 1629 ft | 233 kts | 269° |
| 2026-05-05 07:01 | 2.76361 | 101.62152 | 2047 ft | 251 kts | 269° |
| 2026-05-05 07:01 | 2.76311 | 101.60344 | 2488 ft | 267 kts | 266° |
| 2026-05-05 07:02 | 2.75749 | 101.58537 | 3115 ft | 275 kts | 237° |
| 2026-05-05 07:02 | 2.74376 | 101.57219 | 3992 ft | 278 kts | 209° |
| 2026-05-05 07:02 | 2.72561 | 101.56621 | 4903 ft | 279 kts | 182° |
| 2026-05-05 07:02 | 2.70663 | 101.56912 | 5796 ft | 280 kts | 152° |
| 2026-05-05 07:03 | 2.69183 | 101.58151 | 6622 ft | 281 kts | 123° |
| 2026-05-05 07:03 | 2.68430 | 101.59925 | 7447 ft | 282 kts | 97° |
| 2026-05-05 07:03 | 2.68466 | 101.61893 | 8276 ft | 283 kts | 82° |
| 2026-05-05 07:03 | 2.68745 | 101.63827 | 8948 ft | 286 kts | 81° |
| 2026-05-05 07:04 | 2.69025 | 101.65796 | 9605 ft | 288 kts | 80° |
| 2026-05-05 07:04 | 2.69552 | 101.67735 | 10265 ft | 290 kts | 68° |
| 2026-05-05 07:04 | 2.70537 | 101.69566 | 10663 ft | 303 kts | 57° |
| 2026-05-05 07:04 | 2.71767 | 101.71343 | 10937 ft | 319 kts | 55° |
| 2026-05-05 07:05 | 2.73090 | 101.73202 | 11310 ft | 329 kts | 55° |
| 2026-05-05 07:05 | 2.74437 | 101.75098 | 11891 ft | 333 kts | 55° |
| 2026-05-05 07:05 | 2.75756 | 101.76968 | 12471 ft | 335 kts | 56° |
| 2026-05-05 07:05 | 2.77115 | 101.78904 | 13014 ft | 338 kts | 56° |
| 2026-05-05 07:06 | 2.78479 | 101.80853 | 13564 ft | 340 kts | 56° |
| 2026-05-05 07:06 | 2.79827 | 101.82784 | 14093 ft | 343 kts | 56° |
| 2026-05-05 07:06 | 2.81214 | 101.84775 | 14628 ft | 345 kts | 56° |
| 2026-05-05 07:06 | 2.82601 | 101.86766 | 15138 ft | 347 kts | 56° |
| 2026-05-05 07:07 | 2.83971 | 101.88734 | 15632 ft | 349 kts | 56° |
| 2026-05-05 07:07 | 2.85375 | 101.90751 | 16123 ft | 351 kts | 56° |
| 2026-05-05 07:07 | 2.86755 | 101.92732 | 16590 ft | 352 kts | 56° |
| 2026-05-05 07:07 | 2.88159 | 101.94750 | 17041 ft | 354 kts | 56° |
| 2026-05-05 07:08 | 2.89575 | 101.96784 | 17476 ft | 357 kts | 56° |
| 2026-05-05 07:08 | 2.90994 | 101.98821 | 17918 ft | 359 kts | 56° |
| 2026-05-05 07:08 | 2.92422 | 102.00871 | 18310 ft | 362 kts | 56° |
| 2026-05-05 07:08 | 2.93872 | 102.02954 | 18637 ft | 366 kts | 56° |
| 2026-05-05 07:09 | 2.95330 | 102.05048 | 18996 ft | 369 kts | 56° |
| 2026-05-05 07:09 | 2.96818 | 102.07183 | 19389 ft | 371 kts | 56° |
| 2026-05-05 07:09 | 2.98283 | 102.09287 | 19765 ft | 373 kts | 56° |
| 2026-05-05 07:09 | 2.99781 | 102.11439 | 20120 ft | 375 kts | 56° |
| 2026-05-05 07:10 | 3.01299 | 102.13620 | 20462 ft | 378 kts | 56° |
| 2026-05-05 07:10 | 3.02817 | 102.15802 | 20807 ft | 380 kts | 57° |
| 2026-05-05 07:10 | 3.04347 | 102.18002 | 21140 ft | 382 kts | 57° |
| 2026-05-05 07:10 | 3.05834 | 102.20136 | 21470 ft | 384 kts | 57° |
| 2026-05-05 07:11 | 3.07373 | 102.22349 | 21801 ft | 386 kts | 57° |
| 2026-05-05 07:11 | 3.08906 | 102.24554 | 22106 ft | 388 kts | 57° |
| 2026-05-05 07:11 | 3.10476 | 102.26813 | 22423 ft | 391 kts | 57° |
| 2026-05-05 07:11 | 3.12047 | 102.29071 | 22735 ft | 393 kts | 57° |
| 2026-05-05 07:12 | 3.13620 | 102.31333 | 23065 ft | 395 kts | 57° |
| 2026-05-05 07:12 | 3.15095 | 102.33670 | 23364 ft | 396 kts | 63° |
| 2026-05-05 07:12 | 3.16233 | 102.36173 | 23678 ft | 396 kts | 71° |
| 2026-05-05 07:12 | 3.17026 | 102.38818 | 23953 ft | 398 kts | 77° |
| 2026-05-05 07:13 | 3.17628 | 102.41565 | 24235 ft | 400 kts | 79° |
| 2026-05-05 07:13 | 3.18201 | 102.44321 | 24532 ft | 402 kts | 79° |
| 2026-05-05 07:13 | 3.18768 | 102.47063 | 24818 ft | 404 kts | 79° |
| 2026-05-05 07:13 | 3.19342 | 102.49822 | 25098 ft | 406 kts | 79° |
| 2026-05-05 07:14 | 3.19923 | 102.52594 | 25381 ft | 407 kts | 79° |
| 2026-05-05 07:14 | 3.20514 | 102.55412 | 25643 ft | 410 kts | 79° |
| 2026-05-05 07:14 | 3.21104 | 102.58213 | 25900 ft | 412 kts | 79° |
| 2026-05-05 07:14 | 3.21691 | 102.61002 | 26152 ft | 414 kts | 79° |
| 2026-05-05 07:15 | 3.22287 | 102.63833 | 26405 ft | 415 kts | 79° |
| 2026-05-05 07:15 | 3.22892 | 102.66697 | 26668 ft | 417 kts | 78° |
| 2026-05-05 07:15 | 3.23493 | 102.69547 | 26917 ft | 419 kts | 79° |
| 2026-05-05 07:15 | 3.24095 | 102.72399 | 27157 ft | 421 kts | 78° |
| 2026-05-05 07:16 | 3.24699 | 102.75259 | 27394 ft | 423 kts | 78° |
| 2026-05-05 07:16 | 3.25309 | 102.78150 | 27635 ft | 424 kts | 78° |
| 2026-05-05 07:16 | 3.25926 | 102.81074 | 27873 ft | 426 kts | 78° |
| 2026-05-05 07:16 | 3.26536 | 102.83966 | 28082 ft | 428 kts | 78° |
| 2026-05-05 07:17 | 3.27150 | 102.86878 | 28298 ft | 430 kts | 78° |
| 2026-05-05 07:17 | 3.27774 | 102.89836 | 28507 ft | 432 kts | 78° |
| 2026-05-05 07:17 | 3.28398 | 102.92794 | 28741 ft | 434 kts | 78° |
| 2026-05-05 07:17 | 3.29025 | 102.95771 | 28976 ft | 435 kts | 78° |
| 2026-05-05 07:18 | 3.29654 | 102.98753 | 29199 ft | 437 kts | 78° |
| 2026-05-05 07:18 | 3.30278 | 103.01714 | 29406 ft | 438 kts | 78° |
| 2026-05-05 07:18 | 3.30915 | 103.04735 | 29612 ft | 440 kts | 78° |
| 2026-05-05 07:18 | 3.31548 | 103.07739 | 29822 ft | 442 kts | 78° |
| 2026-05-05 07:19 | 3.32179 | 103.10733 | 30030 ft | 443 kts | 78° |
| 2026-05-05 07:19 | 3.32818 | 103.13770 | 30238 ft | 445 kts | 78° |
| 2026-05-05 07:19 | 3.33464 | 103.16833 | 30450 ft | 446 kts | 78° |
| 2026-05-05 07:19 | 3.34106 | 103.19884 | 30641 ft | 448 kts | 78° |
| 2026-05-05 07:20 | 3.34749 | 103.22935 | 30839 ft | 449 kts | 78° |
| 2026-05-05 07:20 | 3.35389 | 103.25976 | 31018 ft | 451 kts | 78° |
| 2026-05-05 07:20 | 3.36038 | 103.29055 | 31200 ft | 452 kts | 78° |
| 2026-05-05 07:20 | 3.36690 | 103.32153 | 31390 ft | 453 kts | 78° |
| 2026-05-05 07:21 | 3.37338 | 103.35230 | 31624 ft | 453 kts | 78° |
| 2026-05-05 07:21 | 3.37984 | 103.38341 | 31894 ft | 452 kts | 79° |
| 2026-05-05 07:21 | 3.38498 | 103.41424 | 32152 ft | 451 kts | 82° |
| 2026-05-05 07:21 | 3.38842 | 103.44540 | 32403 ft | 450 kts | 85° |
| 2026-05-05 07:22 | 3.39023 | 103.47665 | 32664 ft | 449 kts | 88° |
| 2026-05-05 07:22 | 3.39154 | 103.50813 | 32941 ft | 449 kts | 88° |
| 2026-05-05 07:22 | 3.39276 | 103.53915 | 33232 ft | 448 kts | 88° |
| 2026-05-05 07:22 | 3.39401 | 103.57040 | 33559 ft | 446 kts | 88° |
| 2026-05-05 07:23 | 3.39525 | 103.60124 | 33901 ft | 444 kts | 88° |
| 2026-05-05 07:23 | 3.39651 | 103.63210 | 34227 ft | 442 kts | 88° |
| 2026-05-05 07:23 | 3.39778 | 103.66296 | 34533 ft | 441 kts | 88° |
| 2026-05-05 07:23 | 3.39905 | 103.69368 | 34849 ft | 440 kts | 88° |
| 2026-05-05 07:24 | 3.40031 | 103.72415 | 35146 ft | 438 kts | 88° |
| 2026-05-05 07:24 | 3.40158 | 103.75482 | 35365 ft | 438 kts | 88° |
| 2026-05-05 07:24 | 3.40284 | 103.78516 | 35533 ft | 439 kts | 87° |
| 2026-05-05 07:24 | 3.40412 | 103.81603 | 35695 ft | 440 kts | 87° |
| 2026-05-05 07:25 | 3.40538 | 103.84629 | 35853 ft | 441 kts | 87° |
| 2026-05-05 07:25 | 3.40666 | 103.87717 | 36015 ft | 441 kts | 87° |
| 2026-05-05 07:25 | 3.40792 | 103.90780 | 36169 ft | 441 kts | 87° |
| 2026-05-05 07:25 | 3.40920 | 103.93855 | 36307 ft | 442 kts | 87° |
| 2026-05-05 07:26 | 3.41066 | 103.96896 | 36433 ft | 442 kts | 86° |
| 2026-05-05 07:26 | 3.41224 | 104.00010 | 36574 ft | 442 kts | 86° |
| 2026-05-05 07:26 | 3.41382 | 104.03091 | 36696 ft | 443 kts | 86° |
| 2026-05-05 07:27 | 3.41693 | 104.09251 | 36803 ft | 444 kts | 86° |
| 2026-05-05 07:27 | 3.42000 | 104.15404 | 36806 ft | 444 kts | 87° |
| 2026-05-05 07:28 | 3.42312 | 104.21595 | 36805 ft | 444 kts | 87° |
| 2026-05-05 07:28 | 3.42623 | 104.27776 | 36808 ft | 444 kts | 86° |
| 2026-05-05 07:29 | 3.42936 | 104.33965 | 36808 ft | 444 kts | 86° |
| 2026-05-05 07:29 | 3.43247 | 104.40131 | 36807 ft | 444 kts | 86° |
| 2026-05-05 07:30 | 3.43560 | 104.46300 | 36805 ft | 444 kts | 86° |
| 2026-05-05 07:30 | 3.44025 | 104.55509 | 36808 ft | 444 kts | 86° |
| 2026-05-05 07:31 | 3.44340 | 104.61697 | 36806 ft | 444 kts | 86° |
| 2026-05-05 07:31 | 3.44654 | 104.67827 | 36807 ft | 443 kts | 86° |
| 2026-05-05 07:32 | 3.44971 | 104.73989 | 36806 ft | 443 kts | 86° |
| 2026-05-05 07:32 | 3.45285 | 104.80130 | 36808 ft | 443 kts | 86° |
| 2026-05-05 07:33 | 3.45601 | 104.86286 | 36808 ft | 444 kts | 86° |
| 2026-05-05 07:33 | 3.45918 | 104.92458 | 36812 ft | 444 kts | 86° |
| 2026-05-05 07:34 | 3.46233 | 104.98622 | 36815 ft | 444 kts | 86° |
| 2026-05-05 07:34 | 3.46548 | 105.04771 | 36815 ft | 444 kts | 86° |
| 2026-05-05 07:35 | 3.46862 | 105.10918 | 36815 ft | 443 kts | 86° |
| 2026-05-05 07:35 | 3.47178 | 105.17094 | 36821 ft | 443 kts | 86° |
| 2026-05-05 07:36 | 3.47489 | 105.23234 | 36823 ft | 444 kts | 86° |
| 2026-05-05 07:36 | 3.47798 | 105.29404 | 36824 ft | 444 kts | 86° |
| 2026-05-05 07:37 | 3.48107 | 105.35528 | 36823 ft | 444 kts | 86° |
| 2026-05-05 07:37 | 3.48419 | 105.41694 | 36819 ft | 444 kts | 86° |
| 2026-05-05 07:38 | 3.48730 | 105.47849 | 36815 ft | 444 kts | 86° |
| 2026-05-05 07:38 | 3.49041 | 105.54024 | 36810 ft | 443 kts | 86° |
| 2026-05-05 07:39 | 3.49351 | 105.60171 | 36809 ft | 444 kts | 86° |
| 2026-05-05 07:39 | 3.49661 | 105.66316 | 36808 ft | 444 kts | 86° |
| 2026-05-05 07:40 | 3.49974 | 105.72495 | 36807 ft | 444 kts | 87° |
| 2026-05-05 07:40 | 3.50287 | 105.78707 | 36806 ft | 444 kts | 87° |
| 2026-05-05 07:41 | 3.50600 | 105.84860 | 36805 ft | 444 kts | 87° |
| 2026-05-05 07:41 | 3.50912 | 105.90997 | 36805 ft | 444 kts | 87° |
| 2026-05-05 07:42 | 3.51225 | 105.97168 | 36806 ft | 444 kts | 87° |
| 2026-05-05 07:42 | 3.51542 | 106.03379 | 36804 ft | 444 kts | 87° |
| 2026-05-05 07:43 | 3.51857 | 106.09533 | 36805 ft | 444 kts | 87° |
| 2026-05-05 07:43 | 3.52176 | 106.15772 | 36804 ft | 444 kts | 87° |
| 2026-05-05 07:44 | 3.52492 | 106.21972 | 36803 ft | 444 kts | 87° |
| 2026-05-05 07:44 | 3.52806 | 106.28127 | 36805 ft | 444 kts | 87° |
| 2026-05-05 07:45 | 3.53121 | 106.34309 | 36805 ft | 444 kts | 87° |
| 2026-05-05 07:45 | 3.53439 | 106.40552 | 36805 ft | 444 kts | 87° |
| 2026-05-05 07:46 | 3.53756 | 106.46701 | 36805 ft | 445 kts | 86° |
| 2026-05-05 07:46 | 3.54077 | 106.52911 | 36806 ft | 448 kts | 86° |
| 2026-05-05 07:47 | 3.54401 | 106.59180 | 36804 ft | 451 kts | 86° |
| 2026-05-05 07:47 | 3.54725 | 106.65437 | 36803 ft | 451 kts | 87° |
| 2026-05-05 07:48 | 3.55050 | 106.71730 | 36805 ft | 451 kts | 87° |
| 2026-05-05 07:48 | 3.55374 | 106.78004 | 36805 ft | 451 kts | 86° |
| 2026-05-05 07:49 | 3.55697 | 106.84259 | 36805 ft | 452 kts | 86° |
| 2026-05-05 07:49 | 3.56151 | 106.90521 | 36805 ft | 452 kts | 83° |
| 2026-05-05 07:50 | 3.57231 | 106.96752 | 36804 ft | 451 kts | 77° |
| 2026-05-05 07:50 | 3.58785 | 107.02806 | 36800 ft | 452 kts | 75° |
| 2026-05-05 07:51 | 3.60392 | 107.08902 | 36799 ft | 452 kts | 75° |
| 2026-05-05 07:51 | 3.61999 | 107.15009 | 36802 ft | 452 kts | 75° |
| 2026-05-05 07:52 | 3.63589 | 107.21067 | 36804 ft | 452 kts | 75° |
| 2026-05-05 07:52 | 3.65187 | 107.27165 | 36805 ft | 452 kts | 75° |
| 2026-05-05 07:53 | 3.66777 | 107.33230 | 36805 ft | 451 kts | 75° |
| 2026-05-05 07:53 | 3.68378 | 107.39346 | 36805 ft | 452 kts | 75° |
| 2026-05-05 07:54 | 3.69979 | 107.45459 | 36806 ft | 452 kts | 75° |
| 2026-05-05 07:54 | 3.71579 | 107.51568 | 36806 ft | 452 kts | 75° |
| 2026-05-05 07:55 | 3.73181 | 107.57689 | 36806 ft | 452 kts | 75° |
| 2026-05-05 07:55 | 3.74774 | 107.63773 | 36806 ft | 452 kts | 75° |
| 2026-05-05 07:56 | 3.76360 | 107.69836 | 36806 ft | 451 kts | 75° |
| 2026-05-05 07:56 | 3.77956 | 107.75938 | 36806 ft | 451 kts | 75° |
| 2026-05-05 07:57 | 3.79544 | 107.82019 | 36806 ft | 452 kts | 75° |
| 2026-05-05 07:57 | 3.81132 | 107.88096 | 36806 ft | 451 kts | 75° |
| 2026-05-05 07:58 | 3.82727 | 107.94199 | 36806 ft | 452 kts | 75° |
| 2026-05-05 07:58 | 3.84312 | 108.00266 | 36808 ft | 451 kts | 75° |
| 2026-05-05 07:59 | 3.85893 | 108.06320 | 36808 ft | 451 kts | 75° |
| 2026-05-05 07:59 | 3.87481 | 108.12404 | 36808 ft | 452 kts | 75° |
| 2026-05-05 08:00 | 3.89066 | 108.18481 | 36808 ft | 451 kts | 75° |
| 2026-05-05 08:00 | 3.90646 | 108.24539 | 36807 ft | 452 kts | 75° |
| 2026-05-05 08:01 | 3.92227 | 108.30598 | 36805 ft | 452 kts | 75° |
| 2026-05-05 08:01 | 3.93820 | 108.36705 | 36801 ft | 452 kts | 75° |
| 2026-05-05 08:02 | 3.95403 | 108.42780 | 36798 ft | 452 kts | 75° |
| 2026-05-05 08:02 | 3.96984 | 108.48847 | 36797 ft | 452 kts | 75° |
| 2026-05-05 08:03 | 3.98559 | 108.54897 | 36794 ft | 451 kts | 75° |
| 2026-05-05 08:03 | 4.00138 | 108.60960 | 36787 ft | 452 kts | 75° |
| 2026-05-05 08:04 | 4.01724 | 108.67048 | 36786 ft | 452 kts | 75° |
| 2026-05-05 08:04 | 4.03304 | 108.73111 | 36789 ft | 452 kts | 75° |
| 2026-05-05 08:05 | 4.04904 | 108.79221 | 36794 ft | 452 kts | 75° |
| 2026-05-05 08:05 | 4.06493 | 108.85280 | 36800 ft | 452 kts | 75° |
| 2026-05-05 08:06 | 4.08096 | 108.91402 | 36805 ft | 452 kts | 75° |
| 2026-05-05 08:06 | 4.09689 | 108.97486 | 36806 ft | 452 kts | 75° |
| 2026-05-05 08:07 | 4.11291 | 109.03601 | 36805 ft | 452 kts | 75° |
| 2026-05-05 08:07 | 4.12885 | 109.09684 | 36805 ft | 452 kts | 75° |
| 2026-05-05 08:08 | 4.14471 | 109.15745 | 36806 ft | 452 kts | 75° |
| 2026-05-05 08:08 | 4.16061 | 109.21826 | 36806 ft | 452 kts | 75° |
| 2026-05-05 08:09 | 4.17658 | 109.27932 | 36806 ft | 452 kts | 75° |
| 2026-05-05 08:09 | 4.19254 | 109.34036 | 36806 ft | 452 kts | 75° |
| 2026-05-05 08:10 | 4.20850 | 109.40140 | 36806 ft | 452 kts | 75° |
| 2026-05-05 08:10 | 4.22436 | 109.46211 | 36805 ft | 453 kts | 75° |
| 2026-05-05 08:11 | 4.24031 | 109.52312 | 36806 ft | 453 kts | 76° |
| 2026-05-05 08:11 | 4.25614 | 109.58377 | 36806 ft | 453 kts | 76° |
| 2026-05-05 08:12 | 4.27184 | 109.64480 | 36806 ft | 453 kts | 76° |
| 2026-05-05 08:12 | 4.28751 | 109.70593 | 36806 ft | 453 kts | 76° |
| 2026-05-05 08:13 | 4.30319 | 109.76708 | 36805 ft | 453 kts | 76° |
| 2026-05-05 08:13 | 4.31897 | 109.82852 | 36804 ft | 454 kts | 76° |
| 2026-05-05 08:14 | 4.33459 | 109.88941 | 36801 ft | 454 kts | 76° |
| 2026-05-05 08:14 | 4.35036 | 109.95090 | 36797 ft | 454 kts | 76° |
| 2026-05-05 08:15 | 4.36614 | 110.01243 | 36791 ft | 454 kts | 76° |
| 2026-05-05 08:15 | 4.38186 | 110.07374 | 36787 ft | 454 kts | 76° |
| 2026-05-05 08:16 | 4.39750 | 110.13478 | 36785 ft | 454 kts | 76° |
| 2026-05-05 08:16 | 4.41317 | 110.19598 | 36784 ft | 455 kts | 76° |
| 2026-05-05 08:17 | 4.42892 | 110.25747 | 36785 ft | 455 kts | 76° |
| 2026-05-05 08:17 | 4.44468 | 110.31905 | 36784 ft | 454 kts | 76° |
| 2026-05-05 08:18 | 4.46024 | 110.37989 | 36786 ft | 454 kts | 76° |
| 2026-05-05 08:18 | 4.47595 | 110.44131 | 36789 ft | 454 kts | 76° |
| 2026-05-05 08:19 | 4.49162 | 110.50257 | 36791 ft | 454 kts | 76° |
| 2026-05-05 08:19 | 4.50728 | 110.56378 | 36793 ft | 454 kts | 76° |
| 2026-05-05 08:20 | 4.52295 | 110.62515 | 36797 ft | 454 kts | 76° |
| 2026-05-05 08:20 | 4.53866 | 110.68665 | 36802 ft | 454 kts | 76° |
| 2026-05-05 08:21 | 4.55425 | 110.74770 | 36805 ft | 454 kts | 76° |
| 2026-05-05 08:21 | 4.56990 | 110.80898 | 36806 ft | 454 kts | 76° |
| 2026-05-05 08:22 | 4.58556 | 110.87031 | 36805 ft | 454 kts | 76° |
| 2026-05-05 08:22 | 4.60119 | 110.93156 | 36806 ft | 454 kts | 76° |
| 2026-05-05 08:23 | 4.61688 | 110.99315 | 36806 ft | 454 kts | 76° |
| 2026-05-05 08:23 | 4.63253 | 111.05455 | 36806 ft | 454 kts | 76° |
| 2026-05-05 08:24 | 4.64819 | 111.11607 | 36804 ft | 455 kts | 75° |
| 2026-05-05 08:24 | 4.66378 | 111.17725 | 36802 ft | 455 kts | 75° |
| 2026-05-05 08:25 | 4.67938 | 111.23852 | 36802 ft | 454 kts | 75° |
| 2026-05-05 08:25 | 4.69500 | 111.29987 | 36802 ft | 454 kts | 75° |
| 2026-05-05 08:26 | 4.71058 | 111.36109 | 36796 ft | 453 kts | 75° |
| 2026-05-05 08:26 | 4.72606 | 111.42200 | 36789 ft | 452 kts | 75° |
| 2026-05-05 08:27 | 4.74161 | 111.48316 | 36785 ft | 452 kts | 75° |
| 2026-05-05 08:27 | 4.75716 | 111.54440 | 36785 ft | 452 kts | 75° |
| 2026-05-05 08:28 | 4.77267 | 111.60545 | 36785 ft | 451 kts | 75° |
| 2026-05-05 08:28 | 4.78819 | 111.66653 | 36785 ft | 452 kts | 75° |
| 2026-05-05 08:29 | 4.80365 | 111.72742 | 36784 ft | 451 kts | 75° |
| 2026-05-05 08:30 | 4.82602 | 111.81908 | 36784 ft | 451 kts | 78° |
| 2026-05-05 08:30 | 4.83486 | 111.88158 | 36784 ft | 451 kts | 84° |
| 2026-05-05 08:31 | 4.83733 | 111.94465 | 36785 ft | 451 kts | 88° |
| 2026-05-05 08:31 | 4.83819 | 112.00732 | 36785 ft | 451 kts | 88° |
| 2026-05-05 08:32 | 4.83905 | 112.07008 | 36786 ft | 451 kts | 88° |
| 2026-05-05 08:32 | 4.83995 | 112.13307 | 36794 ft | 452 kts | 88° |
| 2026-05-05 08:33 | 4.84084 | 112.19557 | 36802 ft | 451 kts | 88° |
| 2026-05-05 08:33 | 4.84174 | 112.25848 | 36806 ft | 451 kts | 88° |
| 2026-05-05 08:34 | 4.84263 | 112.32190 | 36805 ft | 451 kts | 88° |
| 2026-05-05 08:34 | 4.84352 | 112.38449 | 36805 ft | 452 kts | 88° |
| 2026-05-05 08:35 | 4.84440 | 112.44776 | 36806 ft | 452 kts | 88° |
| 2026-05-05 08:35 | 4.84528 | 112.51040 | 36804 ft | 452 kts | 88° |
| 2026-05-05 08:36 | 4.84616 | 112.57373 | 36804 ft | 452 kts | 88° |
| 2026-05-05 08:36 | 4.84701 | 112.63672 | 36804 ft | 452 kts | 88° |
| 2026-05-05 08:37 | 4.84788 | 112.69971 | 36803 ft | 452 kts | 88° |
| 2026-05-05 08:37 | 4.84873 | 112.76250 | 36801 ft | 453 kts | 88° |
| 2026-05-05 08:38 | 4.84959 | 112.82568 | 36800 ft | 454 kts | 88° |
| 2026-05-05 08:38 | 4.85044 | 112.88895 | 36793 ft | 453 kts | 88° |
| 2026-05-05 08:39 | 4.85128 | 112.95218 | 36787 ft | 453 kts | 88° |
| 2026-05-05 08:39 | 4.85209 | 113.01489 | 36785 ft | 453 kts | 88° |
| 2026-05-05 08:40 | 4.85292 | 113.07817 | 36785 ft | 453 kts | 88° |
| 2026-05-05 08:40 | 4.85375 | 113.14117 | 36785 ft | 454 kts | 88° |
| 2026-05-05 08:41 | 4.85458 | 113.20455 | 36785 ft | 454 kts | 88° |
| 2026-05-05 08:41 | 4.85539 | 113.26788 | 36785 ft | 454 kts | 88° |
| 2026-05-05 08:42 | 4.85619 | 113.33086 | 36785 ft | 454 kts | 88° |
| 2026-05-05 08:42 | 4.85698 | 113.39404 | 36785 ft | 454 kts | 88° |
| 2026-05-05 08:43 | 4.85778 | 113.45716 | 36785 ft | 454 kts | 88° |
| 2026-05-05 08:43 | 4.85857 | 113.52079 | 36785 ft | 454 kts | 88° |
| 2026-05-05 08:44 | 4.85935 | 113.58399 | 36785 ft | 455 kts | 88° |
| 2026-05-05 08:44 | 4.86013 | 113.64787 | 36539 ft | 447 kts | 88° |
| 2026-05-05 08:44 | 4.86052 | 113.67936 | 35462 ft | 442 kts | 89° |
| 2026-05-05 08:45 | 4.86090 | 113.71083 | 33625 ft | 450 kts | 89° |
| 2026-05-05 08:45 | 4.86129 | 113.74168 | 31707 ft | 460 kts | 89° |
| 2026-05-05 08:45 | 4.86172 | 113.77403 | 29994 ft | 462 kts | 89° |
| 2026-05-05 08:45 | 4.86162 | 113.80594 | 28649 ft | 454 kts | 94° |
| 2026-05-05 08:46 | 4.85791 | 113.83711 | 27563 ft | 441 kts | 99° |
| 2026-05-05 08:46 | 4.85330 | 113.86723 | 26987 ft | 423 kts | 97° |
| 2026-05-05 08:46 | 4.85033 | 113.89616 | 26452 ft | 418 kts | 95° |
| 2026-05-05 08:46 | 4.84820 | 113.92521 | 25885 ft | 412 kts | 93° |
| 2026-05-05 08:47 | 4.84675 | 113.95394 | 24914 ft | 414 kts | 93° |
| 2026-05-05 08:47 | 4.84541 | 113.98300 | 23875 ft | 420 kts | 92° |
| 2026-05-05 08:47 | 4.84405 | 114.01247 | 23163 ft | 418 kts | 92° |
| 2026-05-05 08:47 | 4.84269 | 114.04159 | 22573 ft | 414 kts | 92° |
| 2026-05-05 08:48 | 4.84132 | 114.07026 | 21989 ft | 410 kts | 92° |
| 2026-05-05 08:48 | 4.83996 | 114.09862 | 21425 ft | 403 kts | 92° |
| 2026-05-05 08:48 | 4.83862 | 114.12614 | 20562 ft | 394 kts | 92° |
| 2026-05-05 08:48 | 4.83729 | 114.15325 | 19466 ft | 389 kts | 92° |
| 2026-05-05 08:49 | 4.83598 | 114.17990 | 18390 ft | 383 kts | 92° |
| 2026-05-05 08:49 | 4.83468 | 114.20624 | 17325 ft | 376 kts | 92° |
| 2026-05-05 08:49 | 4.83338 | 114.23261 | 16244 ft | 370 kts | 92° |
| 2026-05-05 08:49 | 4.83213 | 114.25796 | 15185 ft | 364 kts | 92° |
| 2026-05-05 08:50 | 4.83088 | 114.28313 | 14227 ft | 355 kts | 92° |
| 2026-05-05 08:50 | 4.82967 | 114.30762 | 13630 ft | 337 kts | 92° |
| 2026-05-05 08:50 | 4.82853 | 114.33055 | 13090 ft | 321 kts | 92° |
| 2026-05-05 08:50 | 4.82745 | 114.35245 | 12536 ft | 308 kts | 92° |
| 2026-05-05 08:51 | 4.82640 | 114.37363 | 11883 ft | 300 kts | 92° |
| 2026-05-05 08:51 | 4.82538 | 114.39432 | 11240 ft | 293 kts | 92° |
| 2026-05-05 08:51 | 4.82436 | 114.41465 | 10567 ft | 288 kts | 92° |
| 2026-05-05 08:51 | 4.82337 | 114.43461 | 9849 ft | 285 kts | 92° |
| 2026-05-05 08:52 | 4.82240 | 114.45424 | 9140 ft | 282 kts | 92° |
| 2026-05-05 08:52 | 4.82143 | 114.47399 | 8469 ft | 280 kts | 92° |
| 2026-05-05 08:52 | 4.82049 | 114.49319 | 7778 ft | 277 kts | 92° |
| 2026-05-05 08:52 | 4.81955 | 114.51234 | 7065 ft | 276 kts | 92° |
| 2026-05-05 08:53 | 4.81859 | 114.53156 | 6392 ft | 272 kts | 93° |
| 2026-05-05 08:53 | 4.81764 | 114.55042 | 5986 ft | 268 kts | 93° |
| 2026-05-05 08:53 | 4.81669 | 114.56924 | 5622 ft | 266 kts | 92° |
| 2026-05-05 08:53 | 4.81576 | 114.58772 | 5265 ft | 265 kts | 92° |
| 2026-05-05 08:54 | 4.81483 | 114.60610 | 4922 ft | 264 kts | 92° |
| 2026-05-05 08:54 | 4.81391 | 114.62456 | 4582 ft | 264 kts | 92° |
| 2026-05-05 08:54 | 4.81298 | 114.64307 | 4233 ft | 263 kts | 92° |
| 2026-05-05 08:54 | 4.81206 | 114.66153 | 3892 ft | 262 kts | 92° |
| 2026-05-05 08:55 | 4.81114 | 114.67992 | 3548 ft | 262 kts | 92° |
| 2026-05-05 08:55 | 4.81024 | 114.69801 | 3392 ft | 253 kts | 92° |
| 2026-05-05 08:55 | 4.80938 | 114.71520 | 3354 ft | 239 kts | 92° |
| 2026-05-05 08:55 | 4.80857 | 114.73161 | 3312 ft | 227 kts | 92° |
| 2026-05-05 08:56 | 4.80780 | 114.74694 | 3261 ft | 215 kts | 92° |
| 2026-05-05 08:56 | 4.80706 | 114.76170 | 3190 ft | 207 kts | 92° |
| 2026-05-05 08:56 | 4.80633 | 114.77621 | 3075 ft | 206 kts | 92° |
| 2026-05-05 08:56 | 4.80562 | 114.79061 | 2950 ft | 205 kts | 92° |
| 2026-05-05 08:57 | 4.80491 | 114.80484 | 2803 ft | 205 kts | 92° |
| 2026-05-05 08:57 | 4.80419 | 114.81911 | 2568 ft | 201 kts | 92° |
| 2026-05-05 08:57 | 4.80360 | 114.83304 | 2228 ft | 201 kts | 86° |
| 2026-05-05 08:57 | 4.80851 | 114.84559 | 1993 ft | 189 kts | 47° |
| 2026-05-05 08:58 | 4.81816 | 114.85342 | 1978 ft | 168 kts | 31° |
| 2026-05-05 08:58 | 4.82776 | 114.85901 | 1958 ft | 152 kts | 27° |
| 2026-05-05 08:58 | 4.83702 | 114.86417 | 1974 ft | 150 kts | 28° |
| 2026-05-05 08:58 | 4.84614 | 114.86941 | 1935 ft | 151 kts | 28° |
| 2026-05-05 08:59 | 4.85534 | 114.87486 | 1736 ft | 150 kts | 28° |
| 2026-05-05 08:59 | 4.86438 | 114.88032 | 1545 ft | 150 kts | 28° |
| 2026-05-05 08:59 | 4.87329 | 114.88572 | 1353 ft | 147 kts | 28° |
| 2026-05-05 08:59 | 4.88202 | 114.89100 | 1152 ft | 147 kts | 28° |
| 2026-05-05 09:00 | 4.89084 | 114.89634 | 948 ft | 147 kts | 28° |
| 2026-05-05 09:00 | 4.89956 | 114.90172 | 745 ft | 147 kts | 28° |
| 2026-05-05 09:00 | 4.90838 | 114.90694 | 549 ft | 146 kts | 27° |
| 2026-05-05 09:00 | 4.91724 | 114.91220 | 355 ft | 147 kts | 27° |
| 2026-05-05 09:01 | 4.92610 | 114.91751 | 156 ft | 147 kts | 27° |
| 2026-05-05 09:01 | 4.93481 | 114.92278 | 34 ft | 139 kts | 28° |
| 2026-05-05 09:01 | 4.94207 | 114.92708 | 40 ft | 96 kts | 30° |
| 2026-05-05 09:01 | 4.94639 | 114.92967 | 58 ft | 52 kts | 32° |
| 2026-05-05 09:02 | 4.94864 | 114.93102 | 68 ft | 20 kts | 30° |
| 2026-05-05 09:02 | 4.94867 | 114.93170 | 69 ft | 7 kts | 121° |
| 2026-05-05 09:02 | 4.94842 | 114.93211 | 70 ft | 6 kts | 121° |
| 2026-05-05 09:02 | 4.94815 | 114.93243 | 71 ft | 6 kts | 142° |
| 2026-05-05 09:03 | 4.94771 | 114.93246 | 70 ft | 8 kts | 210° |
| 2026-05-05 09:03 | 4.94702 | 114.93206 | 68 ft | 11 kts | 207° |
| 2026-05-05 09:03 | 4.94646 | 114.93226 | 68 ft | 6 kts | 143° |
| 2026-05-05 09:03 | 4.94618 | 114.93249 | 69 ft | 2 kts | 141° |
| 2026-05-05 09:04 | 4.94616 | 114.93250 | 69 ft | 0 kts | 141° |